sensor_id;sensor_type;location;lat;lon;timestamp;P1;durP1;ratioP1;P2;durP2;ratioP2
73023;SDS011;61199;47.526;8.538;2022-08-24T00:01:07;10.13;;;3.77;;
73023;SDS011;61199;47.526;8.538;2022-08-24T00:03:35;9.60;;;3.63;;
73023;SDS011;61199;47.526;8.538;2022-08-24T00:06:03;15.53;;;3.83;;
73023;SDS011;61199;47.526;8.538;2022-08-24T00:08:32;11.97;;;4.40;;
73023;SDS011;61199;47.526;8.538;2022-08-24T00:10:58;6.50;;;4.27;;
73023;SDS011;61199;47.526;8.538;2022-08-24T00:13:25;7.30;;;4.30;;
73023;SDS011;61199;47.526;8.538;2022-08-24T00:15:57;8.93;;;4.83;;
73023;SDS011;61199;47.526;8.538;2022-08-24T00:18:25;7.23;;;4.20;;
73023;SDS011;61199;47.526;8.538;2022-08-24T00:20:52;4.63;;;3.83;;
73023;SDS011;61199;47.526;8.538;2022-08-24T00:23:18;4.80;;;3.87;;
73023;SDS011;61199;47.526;8.538;2022-08-24T00:25:45;5.60;;;3.80;;
73023;SDS011;61199;47.526;8.538;2022-08-24T00:28:11;8.73;;;3.90;;
73023;SDS011;61199;47.526;8.538;2022-08-24T00:30:38;8.93;;;4.47;;
73023;SDS011;61199;47.526;8.538;2022-08-24T00:33:05;8.57;;;4.10;;
73023;SDS011;61199;47.526;8.538;2022-08-24T00:35:32;6.10;;;3.47;;
73023;SDS011;61199;47.526;8.538;2022-08-24T00:37:58;10.33;;;3.90;;
73023;SDS011;61199;47.526;8.538;2022-08-24T00:40:29;9.23;;;4.23;;
73023;SDS011;61199;47.526;8.538;2022-08-24T00:42:59;8.63;;;4.27;;
73023;SDS011;61199;47.526;8.538;2022-08-24T00:45:29;8.10;;;4.20;;
73023;SDS011;61199;47.526;8.538;2022-08-24T00:48:02;6.83;;;4.03;;
73023;SDS011;61199;47.526;8.538;2022-08-24T00:50:33;10.13;;;4.30;;
73023;SDS011;61199;47.526;8.538;2022-08-24T00:53:01;5.70;;;3.80;;
73023;SDS011;61199;47.526;8.538;2022-08-24T00:55:32;8.97;;;4.30;;
73023;SDS011;61199;47.526;8.538;2022-08-24T00:58:08;6.23;;;4.43;;
73023;SDS011;61199;47.526;8.538;2022-08-24T01:00:44;5.37;;;4.10;;
73023;SDS011;61199;47.526;8.538;2022-08-24T01:03:14;7.10;;;4.30;;
73023;SDS011;61199;47.526;8.538;2022-08-24T01:05:42;7.43;;;4.67;;
73023;SDS011;61199;47.526;8.538;2022-08-24T01:08:11;6.23;;;4.27;;
73023;SDS011;61199;47.526;8.538;2022-08-24T01:10:43;6.33;;;4.43;;
73023;SDS011;61199;47.526;8.538;2022-08-24T01:13:12;12.70;;;4.37;;
73023;SDS011;61199;47.526;8.538;2022-08-24T01:15:41;9.37;;;4.53;;
73023;SDS011;61199;47.526;8.538;2022-08-24T01:18:12;10.70;;;5.13;;
73023;SDS011;61199;47.526;8.538;2022-08-24T01:21:02;6.37;;;4.27;;
73023;SDS011;61199;47.526;8.538;2022-08-24T01:26:05;11.30;;;5.50;;
73023;SDS011;61199;47.526;8.538;2022-08-24T01:28:35;11.77;;;4.90;;
73023;SDS011;61199;47.526;8.538;2022-08-24T01:31:06;6.60;;;4.37;;
73023;SDS011;61199;47.526;8.538;2022-08-24T01:33:32;10.03;;;5.10;;
73023;SDS011;61199;47.526;8.538;2022-08-24T01:36:00;6.33;;;4.57;;
73023;SDS011;61199;47.526;8.538;2022-08-24T01:38:33;7.13;;;4.63;;
73023;SDS011;61199;47.526;8.538;2022-08-24T01:41:01;8.83;;;4.30;;
73023;SDS011;61199;47.526;8.538;2022-08-24T01:43:29;8.90;;;5.23;;
73023;SDS011;61199;47.526;8.538;2022-08-24T01:45:56;10.20;;;5.03;;
73023;SDS011;61199;47.526;8.538;2022-08-24T01:48:22;7.20;;;4.60;;
73023;SDS011;61199;47.526;8.538;2022-08-24T01:50:49;8.03;;;4.57;;
73023;SDS011;61199;47.526;8.538;2022-08-24T01:53:15;9.60;;;4.70;;
73023;SDS011;61199;47.526;8.538;2022-08-24T01:55:42;8.10;;;5.77;;
73023;SDS011;61199;47.526;8.538;2022-08-24T01:58:09;13.70;;;5.30;;
73023;SDS011;61199;47.526;8.538;2022-08-24T02:00:36;11.57;;;5.33;;
73023;SDS011;61199;47.526;8.538;2022-08-24T02:03:03;9.27;;;5.40;;
73023;SDS011;61199;47.526;8.538;2022-08-24T02:05:30;8.83;;;4.90;;
73023;SDS011;61199;47.526;8.538;2022-08-24T02:07:57;6.93;;;4.50;;
73023;SDS011;61199;47.526;8.538;2022-08-24T02:10:23;7.97;;;5.13;;
73023;SDS011;61199;47.526;8.538;2022-08-24T02:12:50;8.83;;;4.90;;
73023;SDS011;61199;47.526;8.538;2022-08-24T02:17:52;15.93;;;5.27;;
73023;SDS011;61199;47.526;8.538;2022-08-24T02:20:20;7.93;;;5.03;;
73023;SDS011;61199;47.526;8.538;2022-08-24T02:22:48;10.50;;;4.90;;
73023;SDS011;61199;47.526;8.538;2022-08-24T02:25:18;8.27;;;5.10;;
73023;SDS011;61199;47.526;8.538;2022-08-24T02:27:45;7.33;;;4.70;;
73023;SDS011;61199;47.526;8.538;2022-08-24T02:30:11;12.37;;;4.93;;
73023;SDS011;61199;47.526;8.538;2022-08-24T02:32:40;6.90;;;4.90;;
73023;SDS011;61199;47.526;8.538;2022-08-24T02:35:07;10.73;;;5.63;;
73023;SDS011;61199;47.526;8.538;2022-08-24T02:37:33;9.40;;;5.20;;
73023;SDS011;61199;47.526;8.538;2022-08-24T02:40:08;17.90;;;5.80;;
73023;SDS011;61199;47.526;8.538;2022-08-24T02:42:35;9.50;;;5.13;;
73023;SDS011;61199;47.526;8.538;2022-08-24T02:45:02;10.33;;;5.20;;
73023;SDS011;61199;47.526;8.538;2022-08-24T02:47:31;9.63;;;4.70;;
73023;SDS011;61199;47.526;8.538;2022-08-24T02:50:04;8.73;;;5.23;;
73023;SDS011;61199;47.526;8.538;2022-08-24T02:52:33;10.87;;;4.80;;
73023;SDS011;61199;47.526;8.538;2022-08-24T02:55:02;7.90;;;5.63;;
73023;SDS011;61199;47.526;8.538;2022-08-24T02:57:28;8.73;;;5.30;;
73023;SDS011;61199;47.526;8.538;2022-08-24T02:59:55;10.30;;;5.27;;
73023;SDS011;61199;47.526;8.538;2022-08-24T03:02:21;8.20;;;5.17;;
73023;SDS011;61199;47.526;8.538;2022-08-24T03:04:48;13.90;;;5.33;;
73023;SDS011;61199;47.526;8.538;2022-08-24T03:07:14;8.63;;;4.67;;
73023;SDS011;61199;47.526;8.538;2022-08-24T03:09:41;8.50;;;4.70;;
73023;SDS011;61199;47.526;8.538;2022-08-24T03:12:07;11.63;;;4.90;;
73023;SDS011;61199;47.526;8.538;2022-08-24T03:14:34;9.93;;;5.33;;
73023;SDS011;61199;47.526;8.538;2022-08-24T03:17:00;7.33;;;4.37;;
73023;SDS011;61199;47.526;8.538;2022-08-24T03:19:27;7.23;;;4.77;;
73023;SDS011;61199;47.526;8.538;2022-08-24T03:21:54;10.97;;;5.43;;
73023;SDS011;61199;47.526;8.538;2022-08-24T03:24:21;13.43;;;6.00;;
73023;SDS011;61199;47.526;8.538;2022-08-24T03:26:48;8.50;;;5.50;;
73023;SDS011;61199;47.526;8.538;2022-08-24T03:29:15;7.37;;;5.07;;
73023;SDS011;61199;47.526;8.538;2022-08-24T03:31:41;7.70;;;5.50;;
73023;SDS011;61199;47.526;8.538;2022-08-24T03:34:08;13.17;;;6.00;;
73023;SDS011;61199;47.526;8.538;2022-08-24T03:36:39;8.00;;;5.20;;
73023;SDS011;61199;47.526;8.538;2022-08-24T03:39:06;9.77;;;5.20;;
73023;SDS011;61199;47.526;8.538;2022-08-24T03:41:33;11.00;;;5.47;;
73023;SDS011;61199;47.526;8.538;2022-08-24T03:44:02;11.53;;;5.43;;
73023;SDS011;61199;47.526;8.538;2022-08-24T03:46:28;9.90;;;5.53;;
73023;SDS011;61199;47.526;8.538;2022-08-24T03:48:56;9.57;;;5.67;;
73023;SDS011;61199;47.526;8.538;2022-08-24T03:51:25;9.50;;;5.87;;
73023;SDS011;61199;47.526;8.538;2022-08-24T03:53:53;12.27;;;6.10;;
73023;SDS011;61199;47.526;8.538;2022-08-24T03:56:20;11.27;;;5.40;;
73023;SDS011;61199;47.526;8.538;2022-08-24T03:58:47;9.53;;;5.57;;
73023;SDS011;61199;47.526;8.538;2022-08-24T04:01:14;10.57;;;5.77;;
73023;SDS011;61199;47.526;8.538;2022-08-24T04:03:43;10.67;;;6.13;;
73023;SDS011;61199;47.526;8.538;2022-08-24T04:06:11;11.93;;;6.40;;
73023;SDS011;61199;47.526;8.538;2022-08-24T04:08:39;13.47;;;6.13;;
73023;SDS011;61199;47.526;8.538;2022-08-24T04:11:14;10.40;;;6.10;;
73023;SDS011;61199;47.526;8.538;2022-08-24T04:13:43;9.30;;;6.20;;
73023;SDS011;61199;47.526;8.538;2022-08-24T04:16:11;7.60;;;5.70;;
73023;SDS011;61199;47.526;8.538;2022-08-24T04:18:39;15.57;;;5.07;;
73023;SDS011;61199;47.526;8.538;2022-08-24T04:21:06;13.33;;;6.10;;
73023;SDS011;61199;47.526;8.538;2022-08-24T04:23:41;10.73;;;6.60;;
73023;SDS011;61199;47.526;8.538;2022-08-24T04:26:13;18.60;;;5.87;;
73023;SDS011;61199;47.526;8.538;2022-08-24T04:28:41;13.43;;;6.60;;
73023;SDS011;61199;47.526;8.538;2022-08-24T04:31:07;11.57;;;5.63;;
73023;SDS011;61199;47.526;8.538;2022-08-24T04:33:34;12.13;;;6.23;;
73023;SDS011;61199;47.526;8.538;2022-08-24T04:36:00;10.60;;;6.40;;
73023;SDS011;61199;47.526;8.538;2022-08-24T04:38:28;9.97;;;5.40;;
73023;SDS011;61199;47.526;8.538;2022-08-24T04:40:55;11.73;;;6.83;;
73023;SDS011;61199;47.526;8.538;2022-08-24T04:43:25;14.47;;;6.97;;
73023;SDS011;61199;47.526;8.538;2022-08-24T04:45:51;11.60;;;6.17;;
73023;SDS011;61199;47.526;8.538;2022-08-24T04:48:18;8.47;;;6.27;;
73023;SDS011;61199;47.526;8.538;2022-08-24T04:50:45;12.27;;;6.17;;
73023;SDS011;61199;47.526;8.538;2022-08-24T04:53:11;15.07;;;6.50;;
73023;SDS011;61199;47.526;8.538;2022-08-24T04:55:57;17.80;;;6.87;;
73023;SDS011;61199;47.526;8.538;2022-08-24T04:58:24;11.37;;;6.07;;
73023;SDS011;61199;47.526;8.538;2022-08-24T05:00:51;11.93;;;6.30;;
73023;SDS011;61199;47.526;8.538;2022-08-24T05:03:17;16.60;;;7.03;;
73023;SDS011;61199;47.526;8.538;2022-08-24T05:05:45;16.10;;;7.30;;
73023;SDS011;61199;47.526;8.538;2022-08-24T05:08:14;15.70;;;6.70;;
73023;SDS011;61199;47.526;8.538;2022-08-24T05:10:43;16.90;;;7.10;;
73023;SDS011;61199;47.526;8.538;2022-08-24T05:13:11;14.60;;;6.97;;
73023;SDS011;61199;47.526;8.538;2022-08-24T05:15:42;13.70;;;6.33;;
73023;SDS011;61199;47.526;8.538;2022-08-24T05:18:10;12.83;;;6.60;;
73023;SDS011;61199;47.526;8.538;2022-08-24T05:20:38;22.03;;;7.50;;
73023;SDS011;61199;47.526;8.538;2022-08-24T05:23:06;13.73;;;7.27;;
73023;SDS011;61199;47.526;8.538;2022-08-24T05:25:33;16.70;;;7.17;;
73023;SDS011;61199;47.526;8.538;2022-08-24T05:27:59;11.93;;;5.97;;
73023;SDS011;61199;47.526;8.538;2022-08-24T05:30:26;15.63;;;6.90;;
73023;SDS011;61199;47.526;8.538;2022-08-24T05:32:52;16.10;;;6.77;;
73023;SDS011;61199;47.526;8.538;2022-08-24T05:35:19;14.10;;;7.30;;
73023;SDS011;61199;47.526;8.538;2022-08-24T05:37:45;10.47;;;7.40;;
73023;SDS011;61199;47.526;8.538;2022-08-24T05:40:13;10.00;;;6.77;;
73023;SDS011;61199;47.526;8.538;2022-08-24T05:42:41;17.87;;;7.00;;
73023;SDS011;61199;47.526;8.538;2022-08-24T05:45:07;10.70;;;6.90;;
73023;SDS011;61199;47.526;8.538;2022-08-24T05:47:35;13.83;;;6.77;;
73023;SDS011;61199;47.526;8.538;2022-08-24T05:50:02;11.27;;;6.77;;
73023;SDS011;61199;47.526;8.538;2022-08-24T05:52:29;12.50;;;6.93;;
73023;SDS011;61199;47.526;8.538;2022-08-24T05:54:57;14.03;;;7.60;;
73023;SDS011;61199;47.526;8.538;2022-08-24T05:57:25;13.37;;;7.70;;
73023;SDS011;61199;47.526;8.538;2022-08-24T05:59:55;12.67;;;7.40;;
73023;SDS011;61199;47.526;8.538;2022-08-24T06:02:22;24.53;;;7.97;;
73023;SDS011;61199;47.526;8.538;2022-08-24T06:04:49;14.07;;;8.13;;
73023;SDS011;61199;47.526;8.538;2022-08-24T06:07:15;14.90;;;7.17;;
73023;SDS011;61199;47.526;8.538;2022-08-24T06:09:42;15.33;;;6.70;;
73023;SDS011;61199;47.526;8.538;2022-08-24T06:12:08;16.10;;;7.40;;
73023;SDS011;61199;47.526;8.538;2022-08-24T06:14:35;16.60;;;7.53;;
73023;SDS011;61199;47.526;8.538;2022-08-24T06:17:02;12.73;;;7.50;;
73023;SDS011;61199;47.526;8.538;2022-08-24T06:19:31;16.33;;;7.20;;
73023;SDS011;61199;47.526;8.538;2022-08-24T06:21:57;17.50;;;7.40;;
73023;SDS011;61199;47.526;8.538;2022-08-24T06:24:24;10.03;;;6.80;;
73023;SDS011;61199;47.526;8.538;2022-08-24T06:27:10;17.43;;;7.57;;
73023;SDS011;61199;47.526;8.538;2022-08-24T06:29:51;10.73;;;6.73;;
73023;SDS011;61199;47.526;8.538;2022-08-24T06:32:29;13.53;;;6.63;;
73023;SDS011;61199;47.526;8.538;2022-08-24T06:34:56;11.47;;;6.70;;
73023;SDS011;61199;47.526;8.538;2022-08-24T06:37:24;15.83;;;7.50;;
73023;SDS011;61199;47.526;8.538;2022-08-24T06:39:54;9.13;;;6.03;;
73023;SDS011;61199;47.526;8.538;2022-08-24T06:42:22;36.87;;;7.23;;
73023;SDS011;61199;47.526;8.538;2022-08-24T06:44:54;20.03;;;6.87;;
73023;SDS011;61199;47.526;8.538;2022-08-24T06:47:20;17.47;;;6.63;;
73023;SDS011;61199;47.526;8.538;2022-08-24T06:49:47;12.13;;;6.43;;
73023;SDS011;61199;47.526;8.538;2022-08-24T06:52:14;17.63;;;6.60;;
73023;SDS011;61199;47.526;8.538;2022-08-24T06:54:40;13.70;;;6.60;;
73023;SDS011;61199;47.526;8.538;2022-08-24T06:57:07;11.40;;;6.30;;
73023;SDS011;61199;47.526;8.538;2022-08-24T06:59:34;10.80;;;6.17;;
73023;SDS011;61199;47.526;8.538;2022-08-24T07:02:00;14.27;;;6.10;;
73023;SDS011;61199;47.526;8.538;2022-08-24T07:04:27;9.00;;;6.10;;
73023;SDS011;61199;47.526;8.538;2022-08-24T07:06:54;12.30;;;6.40;;
73023;SDS011;61199;47.526;8.538;2022-08-24T07:09:20;15.53;;;6.63;;
73023;SDS011;61199;47.526;8.538;2022-08-24T07:11:50;10.97;;;6.00;;
73023;SDS011;61199;47.526;8.538;2022-08-24T07:14:17;12.37;;;6.03;;
73023;SDS011;61199;47.526;8.538;2022-08-24T07:16:44;8.53;;;5.70;;
73023;SDS011;61199;47.526;8.538;2022-08-24T07:19:11;7.97;;;4.80;;
73023;SDS011;61199;47.526;8.538;2022-08-24T07:21:37;8.13;;;5.90;;
73023;SDS011;61199;47.526;8.538;2022-08-24T07:24:03;13.43;;;5.80;;
73023;SDS011;61199;47.526;8.538;2022-08-24T07:26:32;7.47;;;5.43;;
73023;SDS011;61199;47.526;8.538;2022-08-24T07:28:59;13.70;;;5.50;;
73023;SDS011;61199;47.526;8.538;2022-08-24T07:31:35;13.23;;;6.23;;
73023;SDS011;61199;47.526;8.538;2022-08-24T07:34:05;8.90;;;5.97;;
73023;SDS011;61199;47.526;8.538;2022-08-24T07:36:33;7.67;;;5.73;;
73023;SDS011;61199;47.526;8.538;2022-08-24T07:39:01;7.53;;;5.10;;
73023;SDS011;61199;47.526;8.538;2022-08-24T07:41:28;9.67;;;5.80;;
73023;SDS011;61199;47.526;8.538;2022-08-24T07:44:16;11.37;;;6.20;;
73023;SDS011;61199;47.526;8.538;2022-08-24T07:46:42;9.77;;;6.47;;
73023;SDS011;61199;47.526;8.538;2022-08-24T07:49:10;8.27;;;5.50;;
73023;SDS011;61199;47.526;8.538;2022-08-24T07:51:57;15.73;;;6.50;;
73023;SDS011;61199;47.526;8.538;2022-08-24T07:54:24;9.93;;;5.80;;
73023;SDS011;61199;47.526;8.538;2022-08-24T07:56:51;10.50;;;6.53;;
73023;SDS011;61199;47.526;8.538;2022-08-24T07:59:17;8.80;;;5.73;;
73023;SDS011;61199;47.526;8.538;2022-08-24T08:01:44;8.93;;;5.17;;
73023;SDS011;61199;47.526;8.538;2022-08-24T08:04:10;8.07;;;6.27;;
73023;SDS011;61199;47.526;8.538;2022-08-24T08:06:36;10.30;;;5.93;;
73023;SDS011;61199;47.526;8.538;2022-08-24T08:09:03;9.17;;;6.30;;
73023;SDS011;61199;47.526;8.538;2022-08-24T08:11:31;8.60;;;6.53;;
73023;SDS011;61199;47.526;8.538;2022-08-24T08:13:58;7.73;;;5.60;;
73023;SDS011;61199;47.526;8.538;2022-08-24T08:16:25;8.77;;;5.77;;
73023;SDS011;61199;47.526;8.538;2022-08-24T08:18:51;11.53;;;6.33;;
73023;SDS011;61199;47.526;8.538;2022-08-24T08:21:39;12.90;;;5.90;;
73023;SDS011;61199;47.526;8.538;2022-08-24T08:24:29;9.70;;;6.50;;
73023;SDS011;61199;47.526;8.538;2022-08-24T08:26:56;11.73;;;5.47;;
73023;SDS011;61199;47.526;8.538;2022-08-24T08:29:23;11.37;;;5.87;;
73023;SDS011;61199;47.526;8.538;2022-08-24T08:31:50;12.30;;;6.93;;
73023;SDS011;61199;47.526;8.538;2022-08-24T08:34:17;10.10;;;6.00;;
73023;SDS011;61199;47.526;8.538;2022-08-24T08:36:44;12.07;;;6.00;;
73023;SDS011;61199;47.526;8.538;2022-08-24T08:39:12;11.80;;;6.43;;
73023;SDS011;61199;47.526;8.538;2022-08-24T08:50:13;11.10;;;5.40;;
73023;SDS011;61199;47.526;8.538;2022-08-24T08:53:11;12.40;;;6.23;;
73023;SDS011;61199;47.526;8.538;2022-08-24T09:04:42;6.83;;;4.53;;
73023;SDS011;61199;47.526;8.538;2022-08-24T09:16:10;9.43;;;5.07;;
73023;SDS011;61199;47.526;8.538;2022-08-24T09:27:17;7.10;;;4.00;;
73023;SDS011;61199;47.526;8.538;2022-08-24T09:30:13;6.00;;;3.90;;
73023;SDS011;61199;47.526;8.538;2022-08-24T09:32:50;10.70;;;4.20;;
73023;SDS011;61199;47.526;8.538;2022-08-24T09:35:31;7.40;;;4.03;;
73023;SDS011;61199;47.526;8.538;2022-08-24T09:54:56;4.30;;;3.67;;
73023;SDS011;61199;47.526;8.538;2022-08-24T09:57:40;3.90;;;3.20;;
73023;SDS011;61199;47.526;8.538;2022-08-24T10:00:28;5.07;;;3.50;;
73023;SDS011;61199;47.526;8.538;2022-08-24T10:17:31;7.77;;;2.80;;
73023;SDS011;61199;47.526;8.538;2022-08-24T10:23:38;4.67;;;2.30;;
73023;SDS011;61199;47.526;8.538;2022-08-24T10:29:04;3.73;;;2.47;;
73023;SDS011;61199;47.526;8.538;2022-08-24T10:42:25;4.20;;;2.50;;
73023;SDS011;61199;47.526;8.538;2022-08-24T10:53:29;8.43;;;3.47;;
73023;SDS011;61199;47.526;8.538;2022-08-24T11:01:33;3.30;;;2.40;;
73023;SDS011;61199;47.526;8.538;2022-08-24T11:06:38;4.63;;;2.93;;
73023;SDS011;61199;47.526;8.538;2022-08-24T11:09:14;5.20;;;2.67;;
73023;SDS011;61199;47.526;8.538;2022-08-24T11:11:46;6.97;;;2.10;;
73023;SDS011;61199;47.526;8.538;2022-08-24T11:16:42;4.73;;;2.30;;
73023;SDS011;61199;47.526;8.538;2022-08-24T11:19:12;5.47;;;2.50;;
73023;SDS011;61199;47.526;8.538;2022-08-24T11:21:47;5.20;;;2.70;;
73023;SDS011;61199;47.526;8.538;2022-08-24T11:26:58;9.67;;;3.53;;
73023;SDS011;61199;47.526;8.538;2022-08-24T11:30:14;6.37;;;2.80;;
73023;SDS011;61199;47.526;8.538;2022-08-24T11:35:28;5.23;;;2.90;;
73023;SDS011;61199;47.526;8.538;2022-08-24T11:38:15;2.93;;;2.10;;
73023;SDS011;61199;47.526;8.538;2022-08-24T11:41:04;4.13;;;2.13;;
73023;SDS011;61199;47.526;8.538;2022-08-24T11:46:26;2.93;;;2.17;;
73023;SDS011;61199;47.526;8.538;2022-08-24T11:49:03;5.37;;;2.23;;
73023;SDS011;61199;47.526;8.538;2022-08-24T11:51:43;5.00;;;2.47;;
73023;SDS011;61199;47.526;8.538;2022-08-24T11:57:16;4.87;;;2.23;;
73023;SDS011;61199;47.526;8.538;2022-08-24T12:02:50;3.37;;;2.23;;
73023;SDS011;61199;47.526;8.538;2022-08-24T12:16:27;5.60;;;2.10;;
73023;SDS011;61199;47.526;8.538;2022-08-24T12:21:45;3.60;;;2.10;;
73023;SDS011;61199;47.526;8.538;2022-08-24T12:24:27;6.73;;;2.10;;
73023;SDS011;61199;47.526;8.538;2022-08-24T12:27:05;4.17;;;2.10;;
73023;SDS011;61199;47.526;8.538;2022-08-24T12:29:41;10.67;;;2.40;;
73023;SDS011;61199;47.526;8.538;2022-08-24T12:32:17;3.50;;;2.10;;
73023;SDS011;61199;47.526;8.538;2022-08-24T12:34:48;2.87;;;2.00;;
73023;SDS011;61199;47.526;8.538;2022-08-24T12:37:31;5.57;;;2.50;;
73023;SDS011;61199;47.526;8.538;2022-08-24T12:40:22;7.40;;;2.00;;
73023;SDS011;61199;47.526;8.538;2022-08-24T12:43:39;4.77;;;2.57;;
73023;SDS011;61199;47.526;8.538;2022-08-24T12:46:11;8.50;;;1.80;;
73023;SDS011;61199;47.526;8.538;2022-08-24T12:48:43;5.23;;;2.30;;
73023;SDS011;61199;47.526;8.538;2022-08-24T12:56:49;5.67;;;2.00;;
73023;SDS011;61199;47.526;8.538;2022-08-24T12:59:31;2.40;;;1.63;;
73023;SDS011;61199;47.526;8.538;2022-08-24T13:02:06;4.70;;;2.10;;
73023;SDS011;61199;47.526;8.538;2022-08-24T13:09:46;14.77;;;1.90;;
73023;SDS011;61199;47.526;8.538;2022-08-24T13:31:01;3.20;;;1.83;;
73023;SDS011;61199;47.526;8.538;2022-08-24T13:33:29;5.40;;;1.80;;
73023;SDS011;61199;47.526;8.538;2022-08-24T13:45:07;5.13;;;2.00;;
73023;SDS011;61199;47.526;8.538;2022-08-24T13:47:48;9.30;;;1.97;;
73023;SDS011;61199;47.526;8.538;2022-08-24T14:01:26;4.63;;;1.80;;
73023;SDS011;61199;47.526;8.538;2022-08-24T14:06:36;8.23;;;1.83;;
73023;SDS011;61199;47.526;8.538;2022-08-24T14:14:05;3.00;;;1.93;;
73023;SDS011;61199;47.526;8.538;2022-08-24T14:25:21;3.10;;;1.90;;
73023;SDS011;61199;47.526;8.538;2022-08-24T14:46:40;2.93;;;2.10;;
73023;SDS011;61199;47.526;8.538;2022-08-24T14:49:28;5.00;;;1.87;;
73023;SDS011;61199;47.526;8.538;2022-08-24T14:52:16;4.30;;;1.87;;
73023;SDS011;61199;47.526;8.538;2022-08-24T14:55:09;3.30;;;1.70;;
73023;SDS011;61199;47.526;8.538;2022-08-24T14:57:46;4.73;;;2.23;;
73023;SDS011;61199;47.526;8.538;2022-08-24T15:00:45;3.33;;;1.90;;
73023;SDS011;61199;47.526;8.538;2022-08-24T15:11:46;3.80;;;2.13;;
73023;SDS011;61199;47.526;8.538;2022-08-24T15:17:09;6.47;;;2.20;;
73023;SDS011;61199;47.526;8.538;2022-08-24T15:19:43;4.03;;;2.00;;
73023;SDS011;61199;47.526;8.538;2022-08-24T15:22:21;7.63;;;2.20;;
73023;SDS011;61199;47.526;8.538;2022-08-24T15:25:03;8.03;;;2.20;;
73023;SDS011;61199;47.526;8.538;2022-08-24T15:27:39;4.53;;;1.90;;
73023;SDS011;61199;47.526;8.538;2022-08-24T15:30:20;4.70;;;1.77;;
73023;SDS011;61199;47.526;8.538;2022-08-24T15:32:51;5.70;;;1.90;;
73023;SDS011;61199;47.526;8.538;2022-08-24T15:35:21;4.07;;;2.03;;
73023;SDS011;61199;47.526;8.538;2022-08-24T15:37:48;3.10;;;2.17;;
73023;SDS011;61199;47.526;8.538;2022-08-24T15:40:16;2.47;;;1.90;;
73023;SDS011;61199;47.526;8.538;2022-08-24T15:42:49;6.70;;;2.20;;
73023;SDS011;61199;47.526;8.538;2022-08-24T15:45:16;4.33;;;1.90;;
73023;SDS011;61199;47.526;8.538;2022-08-24T15:47:45;3.50;;;2.00;;
73023;SDS011;61199;47.526;8.538;2022-08-24T15:50:24;4.17;;;2.07;;
73023;SDS011;61199;47.526;8.538;2022-08-24T15:53:02;3.47;;;2.20;;
73023;SDS011;61199;47.526;8.538;2022-08-24T15:55:33;8.07;;;2.47;;
73023;SDS011;61199;47.526;8.538;2022-08-24T15:58:18;2.67;;;1.80;;
73023;SDS011;61199;47.526;8.538;2022-08-24T16:00:51;3.90;;;2.30;;
73023;SDS011;61199;47.526;8.538;2022-08-24T16:03:52;9.60;;;2.70;;
73023;SDS011;61199;47.526;8.538;2022-08-24T16:09:02;3.03;;;2.10;;
73023;SDS011;61199;47.526;8.538;2022-08-24T16:11:49;4.43;;;2.50;;
73023;SDS011;61199;47.526;8.538;2022-08-24T16:14:33;3.10;;;2.37;;
73023;SDS011;61199;47.526;8.538;2022-08-24T16:17:16;11.53;;;2.10;;
73023;SDS011;61199;47.526;8.538;2022-08-24T16:19:49;5.20;;;2.73;;
73023;SDS011;61199;47.526;8.538;2022-08-24T16:22:32;11.57;;;6.07;;
73023;SDS011;61199;47.526;8.538;2022-08-24T16:36:10;9.43;;;2.60;;
73023;SDS011;61199;47.526;8.538;2022-08-24T16:38:39;5.83;;;2.50;;
73023;SDS011;61199;47.526;8.538;2022-08-24T16:41:12;5.10;;;2.37;;
73023;SDS011;61199;47.526;8.538;2022-08-24T16:43:43;6.03;;;2.80;;
73023;SDS011;61199;47.526;8.538;2022-08-24T16:46:11;4.47;;;2.60;;
73023;SDS011;61199;47.526;8.538;2022-08-24T16:48:38;3.00;;;2.10;;
73023;SDS011;61199;47.526;8.538;2022-08-24T16:51:05;3.13;;;2.17;;
73023;SDS011;61199;47.526;8.538;2022-08-24T16:53:32;3.80;;;2.80;;
73023;SDS011;61199;47.526;8.538;2022-08-24T16:55:58;4.67;;;3.10;;
73023;SDS011;61199;47.526;8.538;2022-08-24T16:58:26;5.20;;;2.63;;
73023;SDS011;61199;47.526;8.538;2022-08-24T17:00:55;6.60;;;2.40;;
73023;SDS011;61199;47.526;8.538;2022-08-24T17:03:22;6.03;;;2.90;;
73023;SDS011;61199;47.526;8.538;2022-08-24T17:05:49;3.73;;;2.60;;
73023;SDS011;61199;47.526;8.538;2022-08-24T17:08:15;6.30;;;2.67;;
73023;SDS011;61199;47.526;8.538;2022-08-24T17:10:42;8.40;;;3.17;;
73023;SDS011;61199;47.526;8.538;2022-08-24T17:13:09;3.70;;;3.00;;
73023;SDS011;61199;47.526;8.538;2022-08-24T17:15:48;4.50;;;2.73;;
73023;SDS011;61199;47.526;8.538;2022-08-24T17:18:18;5.90;;;2.70;;
73023;SDS011;61199;47.526;8.538;2022-08-24T17:20:45;5.43;;;3.00;;
73023;SDS011;61199;47.526;8.538;2022-08-24T17:23:12;4.33;;;2.73;;
73023;SDS011;61199;47.526;8.538;2022-08-24T17:25:38;4.63;;;2.40;;
73023;SDS011;61199;47.526;8.538;2022-08-24T17:28:05;3.43;;;2.40;;
73023;SDS011;61199;47.526;8.538;2022-08-24T17:30:32;6.70;;;2.77;;
73023;SDS011;61199;47.526;8.538;2022-08-24T17:32:59;4.80;;;2.10;;
73023;SDS011;61199;47.526;8.538;2022-08-24T17:35:25;4.20;;;2.87;;
73023;SDS011;61199;47.526;8.538;2022-08-24T17:37:52;4.00;;;2.90;;
73023;SDS011;61199;47.526;8.538;2022-08-24T17:40:21;2.80;;;2.50;;
73023;SDS011;61199;47.526;8.538;2022-08-24T17:42:50;7.63;;;2.77;;
73023;SDS011;61199;47.526;8.538;2022-08-24T17:45:17;4.70;;;2.60;;
73023;SDS011;61199;47.526;8.538;2022-08-24T17:47:45;6.23;;;2.63;;
73023;SDS011;61199;47.526;8.538;2022-08-24T17:50:12;5.30;;;2.67;;
73023;SDS011;61199;47.526;8.538;2022-08-24T17:52:39;6.03;;;2.80;;
73023;SDS011;61199;47.526;8.538;2022-08-24T17:55:07;6.10;;;3.50;;
73023;SDS011;61199;47.526;8.538;2022-08-24T17:57:35;11.37;;;3.00;;
73023;SDS011;61199;47.526;8.538;2022-08-24T18:00:03;5.17;;;2.87;;
73023;SDS011;61199;47.526;8.538;2022-08-24T18:02:32;6.63;;;3.13;;
73023;SDS011;61199;47.526;8.538;2022-08-24T18:04:59;8.17;;;3.47;;
73023;SDS011;61199;47.526;8.538;2022-08-24T18:07:26;12.00;;;2.77;;
73023;SDS011;61199;47.526;8.538;2022-08-24T18:10:14;4.63;;;3.30;;
73023;SDS011;61199;47.526;8.538;2022-08-24T18:12:44;4.00;;;3.47;;
73023;SDS011;61199;47.526;8.538;2022-08-24T18:15:10;2.90;;;2.53;;
73023;SDS011;61199;47.526;8.538;2022-08-24T18:17:41;3.90;;;2.67;;
73023;SDS011;61199;47.526;8.538;2022-08-24T18:20:10;4.10;;;2.90;;
73023;SDS011;61199;47.526;8.538;2022-08-24T18:22:38;11.20;;;2.50;;
73023;SDS011;61199;47.526;8.538;2022-08-24T18:25:10;8.30;;;2.70;;
73023;SDS011;61199;47.526;8.538;2022-08-24T18:27:38;7.33;;;3.47;;
73023;SDS011;61199;47.526;8.538;2022-08-24T18:30:06;5.23;;;2.87;;
73023;SDS011;61199;47.526;8.538;2022-08-24T18:32:35;4.10;;;2.93;;
73023;SDS011;61199;47.526;8.538;2022-08-24T18:35:05;5.97;;;3.37;;
73023;SDS011;61199;47.526;8.538;2022-08-24T18:37:32;8.90;;;3.07;;
73023;SDS011;61199;47.526;8.538;2022-08-24T18:39:59;7.17;;;3.03;;
73023;SDS011;61199;47.526;8.538;2022-08-24T18:42:26;3.40;;;2.63;;
73023;SDS011;61199;47.526;8.538;2022-08-24T18:44:53;5.10;;;3.17;;
73023;SDS011;61199;47.526;8.538;2022-08-24T18:47:20;5.00;;;3.13;;
73023;SDS011;61199;47.526;8.538;2022-08-24T18:49:46;3.90;;;3.00;;
73023;SDS011;61199;47.526;8.538;2022-08-24T18:52:13;7.03;;;3.30;;
73023;SDS011;61199;47.526;8.538;2022-08-24T18:54:41;6.80;;;3.30;;
73023;SDS011;61199;47.526;8.538;2022-08-24T18:57:09;6.20;;;3.70;;
73023;SDS011;61199;47.526;8.538;2022-08-24T18:59:36;6.13;;;3.00;;
73023;SDS011;61199;47.526;8.538;2022-08-24T19:05:18;4.33;;;3.50;;
73023;SDS011;61199;47.526;8.538;2022-08-24T19:07:48;4.70;;;3.80;;
73023;SDS011;61199;47.526;8.538;2022-08-24T19:10:18;4.60;;;4.10;;
73023;SDS011;61199;47.526;8.538;2022-08-24T19:12:51;11.00;;;4.97;;